createdAt,value
2019-03-04T00:00:02.960Z,100.5
2019-03-04T00:01:03.484Z,101
2019-03-04T00:02:03.023Z,99.4
2019-03-04T00:03:03.793Z,98.4
2019-03-04T00:04:03.261Z,98.7
2019-03-04T00:05:03.859Z,97.7
2019-03-04T00:06:03.703Z,97.7
2019-03-04T00:07:03.741Z,97.3
2019-03-04T00:08:03.582Z,95.4
2019-03-04T00:09:03.801Z,94.7
2019-03-04T00:10:03.603Z,94.5
2019-03-04T00:11:03.700Z,95.4
2019-03-04T00:12:02.881Z,95.4
2019-03-04T00:13:02.640Z,94.5
2019-03-04T00:14:03.426Z,95.4
2019-03-04T00:15:03.550Z,94.7
2019-03-04T00:16:03.437Z,95.4
2019-03-04T00:17:03.512Z,94.9
2019-03-04T00:18:03.181Z,93.8
2019-03-04T00:19:03.333Z,94.5
2019-03-04T00:20:03.462Z,94.5
2019-03-04T00:21:03.301Z,94.5
2019-03-04T00:22:03.352Z,93.8
2019-03-04T00:23:03.032Z,92.8
2019-03-04T00:24:03.094Z,92.4
2019-03-04T00:25:02.973Z,93.1
2019-03-04T00:26:03.368Z,92.8
2019-03-04T00:27:03.108Z,94.5
2019-03-04T00:28:03.219Z,97
2019-03-04T00:29:02.937Z,97.5
2019-03-04T00:30:03.242Z,96.6
2019-03-04T00:31:02.691Z,96.6
2019-03-04T00:32:02.942Z,98
2019-03-04T00:33:03.088Z,97.7
2019-03-04T00:34:03.119Z,98.2
2019-03-04T00:35:03.209Z,96.8
2019-03-04T00:36:03.818Z,97.3
2019-03-04T00:37:03.496Z,97.5
2019-03-04T00:38:02.963Z,96.8
2019-03-04T00:39:02.947Z,96.3
2019-03-04T00:40:02.858Z,95.6
2019-03-04T00:41:03.021Z,94.7
2019-03-04T00:42:02.941Z,94.7
2019-03-04T00:43:03.630Z,92.8
2019-03-04T00:44:03.785Z,93.5
2019-03-04T00:45:03.963Z,93.3
2019-03-04T00:46:03.521Z,93.8
2019-03-04T00:47:03.220Z,94.2
2019-03-04T00:48:03.825Z,95.4
2019-03-04T00:49:03.564Z,94
2019-03-04T00:50:03.967Z,94
2019-03-04T00:51:03.627Z,95.2
2019-03-04T00:52:03.104Z,94.7
2019-03-04T00:53:03.620Z,94.5
2019-03-04T00:54:03.605Z,94.9
2019-03-04T00:55:03.595Z,95.6
2019-03-04T00:56:03.274Z,94.9
2019-03-04T00:57:03.680Z,96.3
2019-03-04T00:58:03.509Z,95.4
2019-03-04T00:59:03.457Z,95.6
2019-03-04T01:00:03.129Z,94
2019-03-04T01:01:03.533Z,94.9
2019-03-04T01:02:02.999Z,96.1
2019-03-04T01:03:03.242Z,94.9
2019-03-04T01:04:03.139Z,94.2
2019-03-04T01:05:03.117Z,94
2019-03-04T01:06:03.759Z,92.8
2019-03-04T01:07:02.904Z,93.1
2019-03-04T01:08:03.180Z,95.6
2019-03-04T01:09:03.255Z,94.9
2019-03-04T01:10:03.272Z,93.3
2019-03-04T01:11:02.861Z,91.7
2019-03-04T01:12:03.365Z,92.1
2019-03-04T01:13:02.771Z,92.1
2019-03-04T01:14:02.990Z,91.4
2019-03-04T01:15:02.806Z,91.7
2019-03-04T01:16:02.599Z,91.9
2019-03-04T01:17:03.793Z,92.8
2019-03-04T01:18:03.096Z,92.6
2019-03-04T01:19:02.947Z,92.1
2019-03-04T01:20:04.069Z,92.6
2019-03-04T01:21:03.734Z,92.4
2019-03-04T01:22:02.855Z,91.2
2019-03-04T01:23:02.904Z,91.9
2019-03-04T01:24:03.688Z,91.7
2019-03-04T01:25:03.035Z,90.7
2019-03-04T01:26:03.727Z,91
2019-03-04T01:27:03.630Z,91
2019-03-04T01:28:03.699Z,88.4
2019-03-04T01:29:03.790Z,87
2019-03-04T01:30:03.678Z,88.9
2019-03-04T01:31:03.526Z,88.9
2019-03-04T01:32:03.457Z,87.2
2019-03-04T01:33:03.120Z,87.5
2019-03-04T01:34:03.090Z,87.5
2019-03-04T01:35:03.417Z,88.9
2019-03-04T01:36:03.802Z,88.9
2019-03-04T01:37:03.316Z,89.3
2019-03-04T01:38:03.730Z,90.5
2019-03-04T01:39:03.712Z,90.5
2019-03-04T01:40:03.007Z,92.6
2019-03-04T01:41:03.498Z,93.8
2019-03-04T01:42:02.917Z,92.8
2019-03-04T01:43:03.612Z,93.5
2019-03-04T01:44:03.642Z,94.7
2019-03-04T01:45:03.719Z,96.1
2019-03-04T01:46:03.447Z,95.4
2019-03-04T01:47:03.725Z,94.7
2019-03-04T01:48:03.152Z,94.2
2019-03-04T01:49:03.542Z,94.7
2019-03-04T01:50:03.289Z,94.9
2019-03-04T01:51:03.456Z,93.3
2019-03-04T01:52:03.415Z,93.3
2019-03-04T01:53:03.340Z,94
2019-03-04T01:54:03.233Z,94
2019-03-04T01:55:03.269Z,94.9
2019-03-04T01:56:02.906Z,94.7
2019-03-04T01:57:03.441Z,94
2019-03-04T01:58:03.050Z,94
2019-03-04T01:59:03.099Z,92.8
2019-03-04T02:00:03.235Z,92.6
2019-03-04T02:01:03.056Z,91.2
2019-03-04T02:02:03.157Z,90.3
2019-03-04T02:03:03.052Z,90.7
2019-03-04T02:04:02.775Z,91
2019-03-04T02:05:03.016Z,90
2019-03-04T02:06:02.945Z,90.7
2019-03-04T02:07:02.678Z,91.4
2019-03-04T02:08:02.952Z,90
2019-03-04T02:09:03.911Z,90.7
2019-03-04T02:10:03.159Z,91.4
2019-03-04T02:11:02.907Z,91.9
2019-03-04T02:12:03.261Z,92.1
2019-03-04T02:13:03.838Z,91.7
2019-03-04T02:14:03.787Z,91.9
2019-03-04T02:15:02.971Z,92.1
2019-03-04T02:16:03.537Z,91.9
2019-03-04T02:17:03.899Z,91.9
2019-03-04T02:18:03.833Z,91.2
2019-03-04T02:19:03.835Z,92.8
2019-03-04T02:20:03.649Z,93.1
2019-03-04T02:21:03.525Z,93.1
2019-03-04T02:22:03.584Z,94
2019-03-04T02:23:03.817Z,93.8
2019-03-04T02:24:03.675Z,95.6
2019-03-04T02:25:03.792Z,95.6
2019-03-04T02:26:03.359Z,95.4
2019-03-04T02:27:03.302Z,94.2
2019-03-04T02:28:03.324Z,95.2
2019-03-04T02:29:03.303Z,97
2019-03-04T02:30:03.191Z,96.1
2019-03-04T02:31:03.805Z,96.3
2019-03-04T02:32:03.444Z,98.4
2019-03-04T02:33:03.147Z,97.5
2019-03-04T02:34:03.289Z,98.9
2019-03-04T02:35:03.481Z,99.8
2019-03-04T02:36:03.425Z,99.4
2019-03-04T02:37:03.052Z,99.6
2019-03-04T02:38:03.316Z,99.6
2019-03-04T02:39:03.282Z,98.7
2019-03-04T02:40:03.337Z,97.5
2019-03-04T02:41:03.139Z,97.5
2019-03-04T02:42:03.111Z,97.3
2019-03-04T02:43:02.929Z,96.6
2019-03-04T02:44:02.741Z,95.4
2019-03-04T02:45:03.795Z,94
2019-03-04T02:46:03.118Z,94.5
2019-03-04T02:47:02.997Z,94.2
2019-03-04T02:48:02.963Z,93.5
2019-03-04T02:49:03.205Z,94
2019-03-04T02:50:04.070Z,93.3
2019-03-04T02:51:03.322Z,93.8
2019-03-04T02:52:02.993Z,93.8
2019-03-04T02:53:02.827Z,94.2
2019-03-04T02:54:04.306Z,93.5
2019-03-04T02:55:02.843Z,92.8
2019-03-04T02:56:03.887Z,92.8
2019-03-04T02:57:03.786Z,91.2
2019-03-04T02:58:03.731Z,91.2
2019-03-04T02:59:03.448Z,91.7
2019-03-04T03:00:03.699Z,92.4
2019-03-04T03:01:03.433Z,92.6
2019-03-04T03:02:03.696Z,93.1
2019-03-04T03:03:03.599Z,93.1
2019-03-04T03:04:03.553Z,92.8
2019-03-04T03:05:03.500Z,94
2019-03-04T03:06:03.361Z,94
2019-03-04T03:07:03.113Z,92.8
2019-03-04T03:08:03.081Z,92.1
2019-03-04T03:09:03.109Z,91
2019-03-04T03:10:03.091Z,91
2019-03-04T03:11:03.381Z,90.7
2019-03-04T03:12:03.249Z,91.4
2019-03-04T03:13:03.558Z,92.8
2019-03-04T03:14:03.339Z,92.8
2019-03-04T03:15:03.596Z,93.3
2019-03-04T03:16:03.378Z,92.1
2019-03-04T03:17:03.246Z,91.7
2019-03-04T03:18:03.389Z,92.4
2019-03-04T03:19:03.247Z,92.8
2019-03-04T03:20:03.268Z,94
2019-03-04T03:21:02.716Z,94.5
2019-03-04T03:22:03.015Z,94
2019-03-04T03:23:03.668Z,94
2019-03-04T03:24:02.954Z,92.8
2019-03-04T03:25:04.045Z,94.7
2019-03-04T03:26:03.025Z,93.1
2019-03-04T03:27:02.982Z,94.5
2019-03-04T03:28:02.807Z,93.5
2019-03-04T03:29:03.015Z,93.1
2019-03-04T03:30:03.072Z,92.6
2019-03-04T03:31:03.021Z,93.8
2019-03-04T03:32:03.628Z,92.1
2019-03-04T03:33:03.163Z,92.8
2019-03-04T03:34:03.622Z,91.7
2019-03-04T03:35:09.381Z,90.3
2019-03-04T03:36:03.719Z,89.3
2019-03-04T03:37:03.346Z,88.2
2019-03-04T03:38:03.553Z,87.9
2019-03-04T03:39:03.885Z,87.5
2019-03-04T03:40:03.587Z,87.7
2019-03-04T03:41:03.557Z,87.2
2019-03-04T03:42:03.422Z,88.4
2019-03-04T03:43:03.350Z,91
2019-03-04T03:44:03.157Z,91
2019-03-04T03:45:03.401Z,91.2
2019-03-04T03:46:03.354Z,92.1
2019-03-04T03:47:02.996Z,93.8
2019-03-04T03:48:03.447Z,94.7
2019-03-04T03:49:02.958Z,94.9
2019-03-04T03:50:03.322Z,95.4
2019-03-04T03:51:03.905Z,95.9
2019-03-04T03:52:03.119Z,96.6
2019-03-04T03:53:02.999Z,95.9
2019-03-04T03:54:03.045Z,96.8
2019-03-04T03:55:02.975Z,98
2019-03-04T03:56:03.285Z,98.2
2019-03-04T03:57:03.153Z,100.3
2019-03-04T03:58:02.851Z,100.3
2019-03-04T03:59:02.630Z,100.5
2019-03-04T04:00:03.080Z,101
2019-03-04T04:01:03.130Z,101.5
2019-03-04T04:02:03.181Z,100.5
2019-03-04T04:03:03.859Z,100.8
2019-03-04T04:04:02.926Z,101.5
2019-03-04T04:05:03.866Z,101.9
2019-03-04T04:06:03.722Z,102.2
2019-03-04T04:07:03.888Z,103.1
2019-03-04T04:08:03.806Z,103.8
2019-03-04T04:09:03.918Z,104.7
2019-03-04T04:10:02.810Z,105.7
2019-03-04T04:11:03.801Z,106.1
2019-03-04T04:12:03.801Z,105
2019-03-04T04:13:03.599Z,105
2019-03-04T04:14:03.559Z,105.4
2019-03-04T04:15:03.698Z,104.7
2019-03-04T04:16:03.517Z,105
2019-03-04T04:17:02.706Z,105.7
2019-03-04T04:18:03.051Z,106.8
2019-03-04T04:19:03.341Z,106.1
2019-03-04T04:20:03.313Z,105.9
2019-03-04T04:21:03.400Z,105.2
2019-03-04T04:22:03.312Z,105.7
2019-03-04T04:23:03.135Z,105.7
2019-03-04T04:24:03.628Z,106.4
2019-03-04T04:25:03.217Z,104.7
2019-03-04T04:26:03.166Z,105.9
2019-03-04T04:27:03.219Z,105.4
2019-03-04T04:28:03.396Z,105.9
2019-03-04T04:29:03.489Z,104
2019-03-04T04:30:02.856Z,103.6
2019-03-04T04:31:03.226Z,101.9
2019-03-04T04:32:03.282Z,101.5
2019-03-04T04:33:03.162Z,100.8
2019-03-04T04:34:03.043Z,101
2019-03-04T04:35:03.272Z,101
2019-03-04T04:36:02.748Z,102.4
2019-03-04T04:37:02.851Z,104
2019-03-04T04:38:02.925Z,102.9
2019-03-04T04:39:02.933Z,104.3
2019-03-04T04:40:03.117Z,104.3
2019-03-04T04:41:03.622Z,104.3
2019-03-04T04:42:02.967Z,103.3
2019-03-04T04:43:03.701Z,102.2
2019-03-04T04:44:03.512Z,101.7
2019-03-04T04:45:02.957Z,102.2
2019-03-04T04:46:03.042Z,100.1
2019-03-04T04:47:03.530Z,98.9
2019-03-04T04:48:03.698Z,97.5
2019-03-04T04:49:03.553Z,97.7
2019-03-04T04:50:03.557Z,98.7
2019-03-04T04:51:03.468Z,98
2019-03-04T04:52:03.540Z,96.6
2019-03-04T04:53:03.534Z,96.8
2019-03-04T04:54:03.494Z,96.3
2019-03-04T04:55:03.684Z,94.9
2019-03-04T04:56:03.455Z,94.7
2019-03-04T04:57:03.153Z,93.3
2019-03-04T04:58:03.451Z,93.3
2019-03-04T04:59:03.281Z,93.5
2019-03-04T05:00:03.328Z,93.3
2019-03-04T05:01:03.025Z,93.1
2019-03-04T05:02:03.322Z,93.1
2019-03-04T05:03:03.313Z,92.4
2019-03-04T05:04:02.910Z,91.7
2019-03-04T05:05:02.909Z,91.9
2019-03-04T05:06:03.117Z,91.4
2019-03-04T05:07:03.217Z,89.8
2019-03-04T05:08:03.609Z,91
2019-03-04T05:09:03.418Z,90.5
2019-03-04T05:10:03.171Z,89.6
2019-03-04T05:11:03.246Z,89.8
2019-03-04T05:12:02.935Z,89.8
2019-03-04T05:13:02.617Z,89.3
2019-03-04T05:14:03.214Z,89.6
2019-03-04T05:15:03.227Z,90
2019-03-04T05:16:03.017Z,90.5
2019-03-04T05:17:03.093Z,90.7
2019-03-04T05:18:03.258Z,89.6
2019-03-04T05:19:02.920Z,89.1
2019-03-04T05:20:03.779Z,87.5
2019-03-04T05:21:03.602Z,86.8
2019-03-04T05:22:02.982Z,86.8
2019-03-04T05:23:04.026Z,87
2019-03-04T05:24:02.510Z,86.3
2019-03-04T05:25:04.354Z,87
2019-03-04T05:26:03.602Z,86.8
2019-03-04T05:27:02.837Z,86.3
2019-03-04T05:28:03.412Z,87
2019-03-04T05:29:03.502Z,87.2
2019-03-04T05:30:03.115Z,88.4
2019-03-04T05:31:03.683Z,91
2019-03-04T05:32:03.175Z,93.5
2019-03-04T05:33:03.369Z,95.2
2019-03-04T05:34:03.400Z,94.2
2019-03-04T05:35:03.404Z,93.5
2019-03-04T05:36:03.402Z,93.3
2019-03-04T05:37:03.027Z,92.6
2019-03-04T05:38:03.387Z,93.1
2019-03-04T05:39:02.902Z,94
2019-03-04T05:40:03.068Z,92.8
2019-03-04T05:41:02.799Z,93.1
2019-03-04T05:42:03.998Z,92.1
2019-03-04T05:43:02.903Z,91.4
2019-03-04T05:44:02.872Z,91.2
2019-03-04T05:45:03.100Z,90.3
2019-03-04T05:46:03.676Z,92.1
2019-03-04T05:47:02.882Z,91.9
2019-03-04T05:48:03.881Z,92.6
2019-03-04T05:49:03.645Z,92.4
2019-03-04T05:50:03.461Z,91
2019-03-04T05:51:03.310Z,91.4
2019-03-04T05:52:03.282Z,92.8
2019-03-04T05:53:03.634Z,93.1
2019-03-04T05:54:02.946Z,93.1
2019-03-04T05:55:03.601Z,94
2019-03-04T05:56:03.000Z,94
2019-03-04T05:57:03.469Z,94.2
2019-03-04T05:58:03.359Z,94
2019-03-04T05:59:03.154Z,93.5
2019-03-04T06:00:03.370Z,92.8
2019-03-04T06:01:03.387Z,93.3
2019-03-04T06:02:03.431Z,94
2019-03-04T06:03:03.347Z,94.2
2019-03-04T06:04:03.404Z,94.7
2019-03-04T06:05:03.222Z,94.2
2019-03-04T06:06:03.176Z,94.2
2019-03-04T06:07:03.182Z,95.2
2019-03-04T06:08:03.064Z,94.9
2019-03-04T06:09:03.024Z,94.9
2019-03-04T06:10:03.327Z,97.7
2019-03-04T06:11:03.114Z,97.3
2019-03-04T06:12:02.900Z,98.2
2019-03-04T06:13:02.668Z,97.3
2019-03-04T06:14:03.500Z,95.6
2019-03-04T06:15:03.170Z,96.3
2019-03-04T06:16:03.282Z,96.1
2019-03-04T06:17:03.000Z,95.2
2019-03-04T06:18:02.828Z,94.5
2019-03-04T06:19:03.257Z,94
2019-03-04T06:20:02.662Z,94
2019-03-04T06:21:02.850Z,95.2
2019-03-04T06:22:03.791Z,95.2
2019-03-04T06:23:03.186Z,94.2
2019-03-04T06:24:03.801Z,94.7
2019-03-04T06:25:03.226Z,94.7
2019-03-04T06:26:03.733Z,94.7
2019-03-04T06:27:02.820Z,93.5
2019-03-04T06:28:03.766Z,91.9
2019-03-04T06:29:02.886Z,92.1
2019-03-04T06:30:03.814Z,92.8
2019-03-04T06:31:03.739Z,90.3
2019-03-04T06:32:02.872Z,88.9
2019-03-04T06:33:02.773Z,89.3
2019-03-04T06:34:03.450Z,89.8
2019-03-04T06:35:03.623Z,90.3
2019-03-04T06:36:03.577Z,89.8
2019-03-04T06:37:03.452Z,89.3
2019-03-04T06:38:03.731Z,89.6
2019-03-04T06:39:03.399Z,88.2
2019-03-04T06:40:03.701Z,89.6
2019-03-04T06:41:03.297Z,89.3
2019-03-04T06:42:03.417Z,90.5
2019-03-04T06:43:02.941Z,91.2
2019-03-04T06:44:03.461Z,91.4
2019-03-04T06:45:03.534Z,92.1
2019-03-04T06:46:02.970Z,91.9
2019-03-04T06:47:03.227Z,92.4
2019-03-04T06:48:03.380Z,92.8
2019-03-04T06:49:03.339Z,92.8
2019-03-04T06:50:03.209Z,93.5
2019-03-04T06:51:03.121Z,94.5
2019-03-04T06:52:02.856Z,94
2019-03-04T06:53:03.327Z,94.2
2019-03-04T06:54:03.299Z,95.6
2019-03-04T06:55:03.480Z,94
2019-03-04T06:56:03.174Z,96.6
2019-03-04T06:57:03.236Z,97
2019-03-04T06:58:03.786Z,96.6
2019-03-04T06:59:02.992Z,96.6
2019-03-04T07:00:02.944Z,96.8
2019-03-04T07:01:02.941Z,96.6
2019-03-04T07:02:02.859Z,95.9
2019-03-04T07:03:02.783Z,96.8
2019-03-04T07:04:02.996Z,95.4
2019-03-04T07:05:03.290Z,94
2019-03-04T07:06:02.751Z,94
2019-03-04T07:07:02.898Z,95.4
2019-03-04T07:08:02.845Z,94.7
2019-03-04T07:09:03.589Z,94.7
2019-03-04T07:10:03.933Z,93.1
2019-03-04T07:11:02.900Z,92.4
2019-03-04T07:12:03.079Z,91.9
2019-03-04T07:13:03.286Z,92.1
2019-03-04T07:14:03.130Z,92.6
2019-03-04T07:15:03.946Z,91.2
2019-03-04T07:16:03.421Z,91.9
2019-03-04T07:17:02.971Z,92.1
2019-03-04T07:18:03.297Z,93.3
2019-03-04T07:19:03.728Z,93.5
2019-03-04T07:20:03.100Z,93.3
2019-03-04T07:21:03.741Z,91.7
2019-03-04T07:22:03.600Z,91.2
2019-03-04T07:23:03.823Z,91.7
2019-03-04T07:24:03.789Z,92.4
2019-03-04T07:25:03.472Z,92.4
2019-03-04T07:26:03.546Z,92.8
2019-03-04T07:27:03.845Z,94
2019-03-04T07:28:03.590Z,94.9
2019-03-04T07:29:03.751Z,95.6
2019-03-04T07:30:03.428Z,95.4
2019-03-04T07:31:03.669Z,94.9
2019-03-04T07:32:03.442Z,94.2
2019-03-04T07:33:03.937Z,93.8
2019-03-04T07:34:03.304Z,93.5
2019-03-04T07:35:03.428Z,93.3
2019-03-04T07:36:03.333Z,93.8
2019-03-04T07:37:03.272Z,94.5
2019-03-04T07:38:03.391Z,95.2
2019-03-04T07:39:03.129Z,95.6
2019-03-04T07:40:03.198Z,94.9
2019-03-04T07:41:02.787Z,95.2
2019-03-04T07:42:03.341Z,95.4
2019-03-04T07:43:03.066Z,95.6
2019-03-04T07:44:03.197Z,95.4
2019-03-04T07:45:03.086Z,94.2
2019-03-04T07:46:03.119Z,92.8
2019-03-04T07:47:03.084Z,93.8
2019-03-04T07:48:03.794Z,93.1
2019-03-04T07:49:02.986Z,92.8
2019-03-04T07:50:03.478Z,91.4
2019-03-04T07:51:03.083Z,91.2
2019-03-04T07:52:03.530Z,91.7
2019-03-04T07:53:02.865Z,90.7
2019-03-04T07:54:03.841Z,89.8
2019-03-04T07:55:02.926Z,91.2
2019-03-04T07:56:02.587Z,89.8
2019-03-04T07:57:03.883Z,90
2019-03-04T07:58:03.449Z,90.3
2019-03-04T07:59:03.931Z,90.5
2019-03-04T08:00:03.684Z,90.3
2019-03-04T08:01:02.727Z,91
2019-03-04T08:02:02.827Z,92.1
2019-03-04T08:03:03.582Z,91.9
2019-03-04T08:04:02.809Z,92.8
2019-03-04T08:05:03.525Z,93.8
2019-03-04T08:06:03.885Z,94
2019-03-04T08:07:03.632Z,92.1
2019-03-04T08:08:03.553Z,91.7
2019-03-04T08:09:03.375Z,94
2019-03-04T08:10:03.684Z,93.1
2019-03-04T08:11:03.329Z,94
2019-03-04T08:12:03.251Z,93.8
2019-03-04T08:13:03.697Z,94.7
2019-03-04T08:14:03.582Z,95.6
2019-03-04T08:15:03.411Z,96.3
2019-03-04T08:16:03.921Z,95.9
2019-03-04T08:17:03.236Z,95.9
2019-03-04T08:18:02.950Z,95.9
2019-03-04T08:19:03.089Z,97.3
2019-03-04T08:20:03.202Z,97
2019-03-04T08:21:03.140Z,98
2019-03-04T08:22:03.130Z,98.7
2019-03-04T08:23:02.920Z,98.2
2019-03-04T08:24:02.851Z,98
2019-03-04T08:25:03.360Z,98
2019-03-04T08:26:03.350Z,98.4
2019-03-04T08:27:03.025Z,98.2
2019-03-04T08:28:03.018Z,98.2
2019-03-04T08:29:02.818Z,99.6
2019-03-04T08:30:03.031Z,99.4
2019-03-04T08:31:03.827Z,99.1
2019-03-04T08:32:03.465Z,100.3
2019-03-04T08:33:02.960Z,99.8
2019-03-04T08:34:02.973Z,100.3
2019-03-04T08:35:02.900Z,101.5
2019-03-04T08:36:03.130Z,100.3
2019-03-04T08:37:03.782Z,101
2019-03-04T08:38:03.034Z,100.3
2019-03-04T08:39:03.727Z,99.8
2019-03-04T08:40:03.577Z,100.1
2019-03-04T08:41:03.533Z,100.3
2019-03-04T08:42:03.382Z,100.1
2019-03-04T08:43:03.345Z,100.5
2019-03-04T08:44:03.316Z,101
2019-03-04T08:45:03.622Z,102.6
2019-03-04T08:46:03.774Z,103.8
2019-03-04T08:47:03.479Z,102.4
2019-03-04T08:48:02.918Z,102.6
2019-03-04T08:49:03.602Z,102.2
2019-03-04T08:50:03.366Z,103.3
2019-03-04T08:51:03.266Z,101.7
2019-03-04T08:52:03.282Z,101.9
2019-03-04T08:53:03.096Z,103.8
2019-03-04T08:54:02.839Z,103.3
2019-03-04T08:55:03.129Z,102.6
2019-03-04T08:56:03.167Z,102.2
2019-03-04T08:57:04.551Z,102.6
2019-03-04T08:58:02.844Z,103.1
2019-03-04T08:59:03.087Z,102.6
2019-03-04T09:00:02.929Z,102.2
2019-03-04T09:01:03.859Z,101.2
2019-03-04T09:02:02.834Z,101.2
2019-03-04T09:03:03.169Z,101
2019-03-04T09:04:02.592Z,100.5
2019-03-04T09:05:02.786Z,100.8
2019-03-04T09:06:03.869Z,100.1
2019-03-04T09:07:04.354Z,101.5
2019-03-04T09:08:02.620Z,101.5
2019-03-04T09:09:03.842Z,100.1
2019-03-04T09:10:03.749Z,101
2019-03-04T09:11:03.002Z,102.2
2019-03-04T09:12:03.603Z,102.9
2019-03-04T09:13:03.770Z,102.9
2019-03-04T09:14:03.573Z,102.2
2019-03-04T09:15:03.703Z,101.2
2019-03-04T09:16:03.590Z,101.5
2019-03-04T09:17:03.728Z,103.6
2019-03-04T09:18:03.425Z,104
2019-03-04T09:19:03.290Z,102.2
2019-03-04T09:20:03.395Z,103.6
2019-03-04T09:21:03.198Z,103.8
2019-03-04T09:22:02.844Z,102.6
2019-03-04T09:23:03.006Z,103.8
2019-03-04T09:24:03.473Z,102.9
2019-03-04T09:25:03.213Z,102.9
2019-03-04T09:26:02.787Z,102.6
2019-03-04T09:27:03.316Z,104
2019-03-04T09:28:03.422Z,104
2019-03-04T09:29:03.088Z,101.5
2019-03-04T09:30:03.032Z,101.2
2019-03-04T09:31:03.729Z,101.9
2019-03-04T09:32:03.028Z,101.2
2019-03-04T09:33:02.870Z,100.8
2019-03-04T09:34:02.975Z,100.3
2019-03-04T09:35:03.195Z,98.9
2019-03-04T09:36:02.720Z,99.6
2019-03-04T09:37:03.695Z,99.6
2019-03-04T09:38:03.253Z,98
2019-03-04T09:39:03.363Z,98.2
2019-03-04T09:40:03.283Z,97
2019-03-04T09:41:03.295Z,98.2
2019-03-04T09:42:03.080Z,97.7
2019-03-04T09:43:02.714Z,97
2019-03-04T09:44:03.069Z,97.5
2019-03-04T09:45:03.098Z,97
2019-03-04T09:46:03.872Z,97.5
2019-03-04T09:47:03.809Z,97.7
2019-03-04T09:48:03.118Z,97.7
2019-03-04T09:49:03.870Z,98.4
2019-03-04T09:50:03.711Z,97.3
2019-03-04T09:51:03.737Z,98
2019-03-04T09:52:03.583Z,97.5
2019-03-04T09:53:03.398Z,96.8
2019-03-04T09:54:03.734Z,97.7
2019-03-04T09:55:03.598Z,97.7
2019-03-04T09:56:03.694Z,97.5
2019-03-04T09:57:03.200Z,97
2019-03-04T09:58:03.704Z,97.7
2019-03-04T09:59:03.455Z,98.2
2019-03-04T10:00:03.749Z,98.9
2019-03-04T10:01:03.114Z,99.1
2019-03-04T10:02:03.169Z,98.7
2019-03-04T10:03:03.255Z,100.5
2019-03-04T10:04:02.096Z,101
2019-03-04T10:05:03.529Z,101.2
2019-03-04T10:06:03.122Z,102.9
2019-03-04T10:07:03.058Z,101.5
2019-03-04T10:08:03.673Z,101.2
2019-03-04T10:09:03.153Z,100.1
2019-03-04T10:10:03.217Z,100.1
2019-03-04T10:11:03.260Z,98.9
2019-03-04T10:12:03.239Z,98.2
2019-03-04T10:13:03.288Z,97.5
2019-03-04T10:14:02.959Z,97.3
2019-03-04T10:15:09.339Z,97.5
2019-03-04T10:16:02.917Z,96.6
2019-03-04T10:17:03.052Z,95.2
2019-03-04T10:18:04.020Z,94.2
2019-03-04T10:19:02.559Z,94.7
2019-03-04T10:20:02.719Z,95.4
2019-03-04T10:21:03.643Z,96.1
2019-03-04T10:22:03.387Z,97.5
2019-03-04T10:23:03.952Z,97.5
2019-03-04T10:24:03.677Z,96.1
2019-03-04T10:25:03.643Z,95.9
2019-03-04T10:26:03.007Z,95.2
2019-03-04T10:27:03.847Z,94
2019-03-04T10:28:03.713Z,93.3
2019-03-04T10:29:03.616Z,94.9
2019-03-04T10:30:03.680Z,94.7
2019-03-04T10:31:03.555Z,95.2
2019-03-04T10:32:03.492Z,95.2
2019-03-04T10:33:03.631Z,94.2
2019-03-04T10:34:03.536Z,95.9
2019-03-04T10:35:03.576Z,95.6
2019-03-04T10:36:03.315Z,95.9
2019-03-04T10:37:03.477Z,97
2019-03-04T10:38:03.084Z,98.2
2019-03-04T10:39:03.243Z,98.4
2019-03-04T10:40:03.257Z,98.2
2019-03-04T10:41:03.211Z,96.8
2019-03-04T10:42:03.229Z,97.5
2019-03-04T10:43:03.347Z,95.9
2019-03-04T10:44:02.835Z,96.1
2019-03-04T10:45:03.878Z,95.9
2019-03-04T10:46:03.052Z,95.2
2019-03-04T10:47:03.788Z,96.3
2019-03-04T10:48:03.803Z,96.3
2019-03-04T10:49:03.502Z,96.1
2019-03-04T10:50:03.024Z,95.9
2019-03-04T10:51:03.154Z,96.3
2019-03-04T10:52:03.797Z,95.4
2019-03-04T10:53:03.777Z,94.9
2019-03-04T10:54:03.772Z,93.5
2019-03-04T10:55:03.605Z,95.6
2019-03-04T10:56:03.407Z,96.3
2019-03-04T10:57:03.884Z,97.5
2019-03-04T10:58:03.569Z,96.8
2019-03-04T10:59:03.389Z,95.9
2019-03-04T11:00:03.508Z,95.9
2019-03-04T11:01:03.637Z,97
2019-03-04T11:02:03.401Z,96.3
2019-03-04T11:03:03.341Z,94
2019-03-04T11:04:03.418Z,94
2019-03-04T11:05:03.388Z,94
2019-03-04T11:06:03.184Z,94
2019-03-04T11:07:03.052Z,94.5
2019-03-04T11:08:03.142Z,96.3
2019-03-04T11:09:03.721Z,96.8
2019-03-04T11:10:03.077Z,96.6
2019-03-04T11:11:03.708Z,96.8
2019-03-04T11:12:02.955Z,97.7
2019-03-04T11:13:03.038Z,99.6
2019-03-04T11:14:03.558Z,101
2019-03-04T11:15:03.390Z,101.2
2019-03-04T11:16:02.599Z,101.9
2019-03-04T11:17:03.543Z,101.9
2019-03-04T11:18:03.437Z,101.9
2019-03-04T11:19:03.493Z,101.9
2019-03-04T11:20:03.519Z,101
2019-03-04T11:21:03.555Z,99.6
2019-03-04T11:22:03.356Z,100.1
2019-03-04T11:23:03.639Z,99.8
2019-03-04T11:24:03.341Z,101.5
2019-03-04T11:25:03.629Z,102.4
2019-03-04T11:26:02.883Z,102.2
2019-03-04T11:27:03.140Z,103.1
2019-03-04T11:28:03.270Z,103.3
2019-03-04T11:29:03.113Z,102.4
2019-03-04T11:30:03.938Z,102.4
2019-03-04T11:31:03.060Z,103.3
2019-03-04T11:32:03.084Z,103.8
2019-03-04T11:33:02.993Z,104.3
2019-03-04T11:34:02.905Z,102.9
2019-03-04T11:35:03.017Z,104.7
2019-03-04T11:36:03.097Z,104
2019-03-04T11:37:03.817Z,104.3
2019-03-04T11:38:02.953Z,103.6
2019-03-04T11:39:03.759Z,103.6
2019-03-04T11:40:03.833Z,103.3
2019-03-04T11:41:03.645Z,103.1
2019-03-04T11:42:03.568Z,103.6
2019-03-04T11:43:03.556Z,104.7
2019-03-04T11:44:05.158Z,104.3
2019-03-04T11:45:03.782Z,104.3
2019-03-04T11:46:03.521Z,104.5
2019-03-04T11:47:03.165Z,105.9
2019-03-04T11:48:03.444Z,105.4
2019-03-04T11:49:03.589Z,104.5
2019-03-04T11:50:03.505Z,106.8
2019-03-04T11:51:03.405Z,106.1
2019-03-04T11:52:03.442Z,107.3
2019-03-04T11:53:03.698Z,108.2
2019-03-04T11:54:03.347Z,108.5
2019-03-04T11:55:03.114Z,107.1
2019-03-04T11:56:03.189Z,107.5
2019-03-04T11:57:03.112Z,107.1
2019-03-04T11:58:03.428Z,106.6
2019-03-04T11:59:02.958Z,108
2019-03-04T12:00:03.400Z,110.8
2019-03-04T12:01:03.087Z,109.6
2019-03-04T12:02:03.385Z,110.1
2019-03-04T12:03:03.190Z,110.1
2019-03-04T12:04:03.052Z,109.9
2019-03-04T12:05:03.131Z,109.9
2019-03-04T12:06:03.178Z,108.9
2019-03-04T12:07:03.119Z,109.9
2019-03-04T12:08:02.912Z,108
2019-03-04T12:09:03.026Z,108.2
2019-03-04T12:10:02.992Z,107.8
2019-03-04T12:11:03.175Z,108
2019-03-04T12:12:02.863Z,107.3
2019-03-04T12:13:03.983Z,105.4
2019-03-04T12:14:03.614Z,104.3
2019-03-04T12:15:03.391Z,104.3
2019-03-04T12:16:03.817Z,103.3
2019-03-04T12:17:03.728Z,101.9
2019-03-04T12:18:03.364Z,101
2019-03-04T12:19:03.655Z,101.7
2019-03-04T12:20:03.883Z,101
2019-03-04T12:21:03.452Z,101.2
2019-03-04T12:22:03.050Z,101.5
2019-03-04T12:23:03.335Z,101.2
2019-03-04T12:24:03.688Z,100.5
2019-03-04T12:25:03.378Z,101
2019-03-04T12:26:03.418Z,102.2
2019-03-04T12:27:03.694Z,101.2
2019-03-04T12:28:02.959Z,102.9
2019-03-04T12:29:03.334Z,103.8
2019-03-04T12:30:03.395Z,103.3
2019-03-04T12:31:03.632Z,101.9
2019-03-04T12:32:03.052Z,101.7
2019-03-04T12:33:03.277Z,103.1
2019-03-04T12:34:02.998Z,102.6
2019-03-04T12:35:03.458Z,101.7
2019-03-04T12:36:03.240Z,102.6
2019-03-04T12:37:03.343Z,101.5
2019-03-04T12:38:03.275Z,102.9
2019-03-04T12:39:03.060Z,102.2
2019-03-04T12:40:03.387Z,103.3
2019-03-04T12:41:03.167Z,103.3
2019-03-04T12:42:03.234Z,102.9
2019-03-04T12:43:02.874Z,102.6
2019-03-04T12:44:03.179Z,102.2
2019-03-04T12:45:03.222Z,102.6
2019-03-04T12:46:02.825Z,102.9
2019-03-04T12:47:03.800Z,100.5
2019-03-04T12:48:03.251Z,100.8
2019-03-04T12:49:02.874Z,103.1
2019-03-04T12:50:03.575Z,102.2
2019-03-04T12:51:03.811Z,102.4
2019-03-04T12:52:03.601Z,102.4
2019-03-04T12:53:03.376Z,101.2
2019-03-04T12:54:03.735Z,101
2019-03-04T12:55:03.712Z,99.8
2019-03-04T12:56:02.990Z,98.7
2019-03-04T12:57:03.572Z,97.7
2019-03-04T12:58:03.194Z,97.3
2019-03-04T12:59:03.261Z,96.3
2019-03-04T13:00:03.490Z,93.5
2019-03-04T13:01:03.572Z,92.8
2019-03-04T13:02:03.034Z,92.6
2019-03-04T13:03:03.095Z,92.8
2019-03-04T13:04:03.397Z,92.8
2019-03-04T13:05:03.411Z,93.8
2019-03-04T13:06:03.367Z,94.9
2019-03-04T13:07:03.002Z,94.7
2019-03-04T13:08:02.975Z,95.6
2019-03-04T13:09:03.086Z,95.9
2019-03-04T13:10:03.609Z,96.3
2019-03-04T13:11:02.923Z,97.5
2019-03-04T13:12:02.987Z,96.6
2019-03-04T13:13:03.595Z,96.6
2019-03-04T13:14:02.959Z,96.1
2019-03-04T13:15:03.679Z,96.8
2019-03-04T13:16:03.045Z,95.6
2019-03-04T13:17:03.711Z,98